Overview Statistics Trail Chart Weather Telemetry Raw packets
 

This is the latest recevied telemetry packets stored in our database for station/object OE3LCR-14. If no packets are shown the sender has not sent any telemetry packets the latest 10 day(s).

Telemetry packets is used to share measurements like repeteater parameters, battery voltage, radiation readings (or any other measurements).

<< 1 2 3 >>
Time Press* Temp.in* Hum* QNH* Temp.out*
1788562530 983.3 hPa 34.8 C deg 0 % 1017 hPa 0 C deg
1788561979 983.4 hPa 34.8 C deg 0 % 1017.1 hPa 0 C deg
1788560181 983.3 hPa 34.9 C deg 0 % 1017 hPa 0 C deg
1788558345 983.1 hPa 34.9 C deg 0 % 1016.8 hPa 0 C deg
1788553873 982.9 hPa 35.1 C deg 0 % 1016.6 hPa 0 C deg
1788552028 982.6 hPa 36.1 C deg 0 % 1016.1 hPa 0 C deg
1788551325 982.8 hPa 36.5 C deg 0 % 1016.3 hPa 0 C deg
1788549505 982.8 hPa 36.8 C deg 0 % 1016.3 hPa 0 C deg
1788545820 982.5 hPa 36.5 C deg 0 % 1016 hPa 0 C deg
1788341210 988.1 hPa 55.6 C deg 0 % 1018.6 hPa 0 C deg
1788338206 988 hPa 42 C deg 0 % 1019.7 hPa 0 C deg
1788336375 987.9 hPa 36.9 C deg 0 % 1020.2 hPa 0 C deg
1788334545 987.8 hPa 34.3 C deg 0 % 1020.4 hPa 0 C deg
1788332715 987.5 hPa 29 C deg 0 % 1020.6 hPa 0 C deg
1788332048 987.8 hPa 26.8 C deg 0 % 1021.2 hPa 0 C deg
1788331774 989.6 hPa 27.1 C deg 0 % 1023 hPa 0 C deg
1788329975 990.8 hPa 33 C deg 0 % 1023.6 hPa 0 C deg
1788328145 990.8 hPa 33 C deg 0 % 1023.6 hPa 0 C deg
1788327464 990.9 hPa 33 C deg 0 % 1023.7 hPa 0 C deg
1788323803 990.8 hPa 32.7 C deg 0 % 1023.6 hPa 0 C deg
1788322080 990.8 hPa 32.2 C deg 0 % 1023.7 hPa 0 C deg
1788320240 990.9 hPa 32.4 C deg 0 % 1023.8 hPa 0 C deg
1788318408 990.9 hPa 32.5 C deg 0 % 1023.8 hPa 0 C deg
1788318218 990.7 hPa 32.4 C deg 0 % 1023.6 hPa 0 C deg
1788318145 990.9 hPa 32.5 C deg 0 % 1023.8 hPa 0 C deg
*Used Equation Coefficients:
Press: 0, 1, 0
Temp.in: 0, 1, 0
Hum: 0, 1, 0
QNH: 0, 1, 0
Temp.out: 0, 1, 0

  • The parameter names for the analog channels will be Value1, Value2, Value3 (up to Value5) if station has not sent a PARAM-packet that specifies the parameter names for each analog channel.
  • Each analog value is a decimal number between 000 and 255 (according to APRS specifications). The receiver use the telemetry equation coefficientsto to restore the original sensor values. If no EQNS-packet with equation coefficients is sent we will show the values as is (this corresponds to the equation coefficients a=0, b=1 and c=0).
    The sent equation coefficients is used in the equation: a * value2 + b * value + c.
  • The units for the analog values will not be shown if station has not sent a UNIT-packet specifying what unit's to use.
  • The parameter names for the digital bits will be Bit1, Bit2, Bit3 (up to Bit8) if station has not sent a PARAM-packet that specifies the parameter names for each digital bit.
  • All bit labels will be named "On" if station has not sent a UNIT-packet that specifies the label of each bit.
  • A bit is considered to be On when the bit is 1 if station has not sent a BITS-packet that specifies another "Bit sense" (a BITS-packet specify the state of the bits that match the BIT labels)